Time;durP1;ratioP1;P1;durP2;ratioP2;P2;SDS_P1;SDS_P2;PMS_P1;PMS_P2;Temp;Humidity;BMP_temperature;BMP_pressure;BME280_temperature;BME280_humidity;BME280_pressure;Samples;Min_cycle;Max_cycle;Signal;HPM_P1;HPM_P2
2021/03/28 00:01:20;;;;;;;7.23;2.50;;;;;;;4.47;60.22;97441.19;4980759;28;20030;-77
2021/03/28 00:03:55;;;;;;;7.78;2.88;;;;;;;4.45;60.40;97437.81;4972770;28;20061;-77
2021/03/28 00:06:36;;;;;;;11.37;3.20;;;;;;;4.53;60.05;97436.53;4995193;28;20491;-79
2021/03/28 00:09:16;;;;;;;7.57;2.40;;;;;;;4.41;60.31;97441.53;4988299;28;21361;-79
2021/03/28 00:11:59;;;;;;;8.53;2.53;;;;;;;4.34;60.44;97448.06;4975319;28;20552;-77
2021/03/28 00:14:42;;;;;;;13.33;2.47;;;;;;;4.30;60.45;97441.34;4990884;28;20030;-78
2021/03/28 00:17:34;;;;;;;7.22;1.95;;;;;;;4.26;61.16;97445.06;4989644;28;20449;-76
2021/03/28 00:20:15;;;;;;;8.20;2.47;;;;;;;4.28;60.84;97450.19;4985525;28;20050;-77
2021/03/28 00:23:10;;;;;;;9.43;2.53;;;;;;;4.26;60.96;97452.88;4990770;28;20470;-77
2021/03/28 00:25:47;;;;;;;6.83;2.43;;;;;;;4.22;61.08;97443.56;4994011;28;20476;-77
2021/03/28 00:28:41;;;;;;;11.13;3.33;;;;;;;4.21;61.04;97447.94;4976539;28;21370;-78
2021/03/28 00:31:21;;;;;;;12.48;2.25;;;;;;;4.10;61.45;97444.28;4994554;28;20465;-76
2021/03/28 00:34:13;;;;;;;8.87;1.90;;;;;;;4.14;61.73;97436.22;4977161;28;20105;-76
2021/03/28 00:36:48;;;;;;;10.80;2.50;;;;;;;4.15;60.97;97439.66;4969918;28;21120;-77
2021/03/28 00:39:30;;;;;;;7.83;2.53;;;;;;;4.14;61.35;97438.81;4986984;28;20493;-75
2021/03/28 00:42:02;;;;;;;6.93;2.00;;;;;;;4.12;61.62;97442.44;4999413;28;20529;-75
2021/03/28 00:44:31;;;;;;;8.20;1.97;;;;;;;4.13;62.04;97439.75;4988938;28;20764;-78
2021/03/28 00:47:00;;;;;;;6.87;2.07;;;;;;;4.10;62.18;97433.88;4993773;28;20420;-75
2021/03/28 00:49:41;;;;;;;6.43;1.67;;;;;;;4.03;62.56;97433.41;4996561;28;20445;-75
2021/03/28 00:52:24;;;;;;;7.67;1.77;;;;;;;3.98;62.08;97436.25;4997985;28;20480;-75
2021/03/28 00:54:53;;;;;;;7.37;2.07;;;;;;;3.92;62.16;97434.03;4992191;28;20532;-76
2021/03/28 00:57:36;;;;;;;6.43;2.00;;;;;;;3.99;62.41;97431.88;5073243;28;20464;-75
2021/03/28 01:00:18;;;;;;;8.03;2.40;;;;;;;3.86;62.56;97436.16;4987480;28;20891;-76
2021/03/28 01:03:06;;;;;;;9.67;2.00;;;;;;;3.85;63.08;97440.50;4979115;28;20504;-78
2021/03/28 01:05:49;;;;;;;6.28;2.00;;;;;;;3.84;62.33;97438.00;4983140;28;20536;-77
2021/03/28 01:08:23;;;;;;;10.20;2.22;;;;;;;3.85;63.35;97435.28;4976096;28;20127;-78
2021/03/28 01:11:43;;;;;;;8.80;2.07;;;;;;;3.81;63.53;97435.56;4977528;28;20031;-75
2021/03/28 01:14:41;;;;;;;8.53;2.40;;;;;;;3.90;62.84;97435.03;5037288;28;20507;-78
2021/03/28 01:17:26;;;;;;;6.93;1.67;;;;;;;3.89;62.85;97434.22;4974184;28;20472;-75
2021/03/28 01:19:57;;;;;;;6.67;2.10;;;;;;;3.90;63.53;97432.44;4976820;28;20476;-76
2021/03/28 01:22:30;;;;;;;7.70;1.50;;;;;;;3.90;63.91;97430.66;4981874;28;20473;-77
2021/03/28 01:25:11;;;;;;;;;;;;;;;3.99;62.60;97431.88;4993436;28;20813;-76
2021/03/28 01:27:55;;;;;;;9.47;1.80;;;;;;;4.01;63.99;97430.88;4989767;28;19987;-75
2021/03/28 01:30:40;;;;;;;9.80;1.92;;;;;;;4.05;63.42;97436.72;4989740;28;20468;-75
2021/03/28 01:33:19;;;;;;;8.90;1.80;;;;;;;4.02;63.18;97434.31;4981218;28;20030;-76
2021/03/28 01:36:09;;;;;;;5.20;1.87;;;;;;;4.04;63.73;97432.47;4979385;28;20469;-78
2021/03/28 01:38:55;;;;;;;10.97;2.27;;;;;;;4.03;63.38;97423.00;4990776;28;20448;-76
2021/03/28 01:41:29;;;;;;;10.33;2.20;;;;;;;3.98;63.20;97425.00;5019212;28;20501;-76
2021/03/28 01:44:07;;;;;;;9.80;2.35;;;;;;;3.96;63.06;97432.09;5012395;28;20437;-77
2021/03/28 01:47:03;;;;;;;7.03;1.67;;;;;;;3.87;63.11;97428.25;5004083;28;20095;-75
2021/03/28 01:49:51;;;;;;;7.43;1.90;;;;;;;3.86;64.12;97423.13;5000001;28;20448;-75
2021/03/28 01:52:35;;;;;;;7.77;2.27;;;;;;;3.76;63.68;97434.06;5001100;28;21010;-75
2021/03/28 01:55:19;;;;;;;;;;;;;;;3.66;64.46;97434.69;5094547;27;20566;-75
2021/03/28 01:57:51;;;;;;;5.45;1.77;;;;;;;3.62;64.75;97430.56;4986016;28;19917;-75
2021/03/28 02:00:58;;;;;;;9.07;1.87;;;;;;;3.66;64.46;97432.91;4998650;28;20034;-75
2021/03/28 02:04:03;;;;;;;11.67;2.07;;;;;;;3.69;64.57;97426.69;5011572;28;21059;-75
2021/03/28 02:06:40;;;;;;;6.43;2.00;;;;;;;3.74;64.02;97437.69;4984493;28;20453;-76
2021/03/28 02:09:30;;;;;;;8.83;2.87;;;;;;;3.67;64.50;97437.19;4984057;28;20501;-75
2021/03/28 02:12:07;;;;;;;11.27;2.43;;;;;;;3.63;64.84;97440.88;5004343;28;20461;-75
2021/03/28 02:15:07;;;;;;;8.90;2.50;;;;;;;3.58;64.05;97447.25;4978555;28;21043;-75
2021/03/28 02:17:48;;;;;;;6.17;1.87;;;;;;;3.63;64.90;97445.25;5010698;28;20456;-75
2021/03/28 02:20:26;;;;;;;11.63;2.40;;;;;;;3.60;64.86;97440.22;4993352;28;20461;-75
2021/03/28 02:22:59;;;;;;;9.10;1.77;;;;;;;3.55;64.15;97437.88;4974056;28;20486;-75
2021/03/28 02:25:46;;;;;;;6.70;1.58;;;;;;;3.49;64.76;97441.66;4997723;28;20845;-75
2021/03/28 02:28:49;;;;;;;8.17;1.77;;;;;;;3.52;64.61;97444.09;4989712;28;20038;-76
2021/03/28 02:31:59;;;;;;;6.93;2.03;;;;;;;3.42;65.59;97442.06;4996836;28;20534;-76
2021/03/28 02:35:06;;;;;;;8.87;2.00;;;;;;;3.46;65.05;97443.59;5004738;28;20588;-76
2021/03/28 02:37:45;;;;;;;7.60;2.30;;;;;;;3.35;65.89;97438.97;5006682;28;20498;-75
2021/03/28 02:40:35;;;;;;;6.03;1.77;;;;;;;3.36;65.79;97443.28;4995576;28;20468;-75
2021/03/28 02:43:11;;;;;;;10.03;2.33;;;;;;;3.34;65.23;97439.06;5089798;28;20472;-75
2021/03/28 02:45:47;;;;;;;10.00;1.90;;;;;;;3.33;65.21;97438.25;4979178;28;20489;-78
2021/03/28 02:48:34;;;;;;;9.87;2.60;;;;;;;3.33;65.40;97438.25;4987810;28;20477;-75
2021/03/28 02:51:25;;;;;;;6.37;2.20;;;;;;;3.33;65.43;97438.25;5006058;28;20466;-76
2021/03/28 02:53:59;;;;;;;7.70;2.80;;;;;;;3.28;65.73;97441.06;5005044;28;20467;-76
2021/03/28 02:56:51;;;;;;;9.40;2.60;;;;;;;3.27;66.31;97439.41;4999100;28;20806;-75
2021/03/28 02:59:38;;;;;;;7.63;2.07;;;;;;;3.33;65.88;97443.44;5009685;28;20491;-76
2021/03/28 03:02:19;;;;;;;9.87;2.73;;;;;;;3.41;65.69;97436.03;4997915;28;20457;-77
2021/03/28 03:05:36;;;;;;;7.47;2.27;;;;;;;3.37;65.38;97446.72;4996682;28;20454;-76
2021/03/28 03:08:11;;;;;;;4.93;1.90;;;;;;;3.44;65.35;97440.25;5017067;28;20549;-75
2021/03/28 03:10:43;;;;;;;10.43;2.20;;;;;;;3.45;65.02;97444.50;5002583;28;21049;-76
2021/03/28 03:13:30;;;;;;;8.67;2.47;;;;;;;3.47;65.09;97440.91;4991508;28;20573;-76
2021/03/28 03:16:37;;;;;;;8.47;2.47;;;;;;;3.49;65.09;97449.47;4987630;28;20556;-76
2021/03/28 03:19:31;;;;;;;6.87;2.07;;;;;;;3.56;65.15;97444.75;5009545;28;20478;-75
2021/03/28 03:22:27;;;;;;;7.53;2.53;;;;;;;3.61;65.24;97447.09;4984343;28;20460;-77
2021/03/28 03:25:34;;;;;;;8.37;2.53;;;;;;;3.71;63.87;97445.66;4964483;28;20583;-76
2021/03/28 03:28:38;;;;;;;9.43;2.70;;;;;;;3.76;64.75;97444.47;4989879;28;20442;-76
2021/03/28 03:31:12;;;;;;;8.47;2.37;;;;;;;3.80;64.45;97442.53;4995881;28;20450;-76
2021/03/28 03:34:15;;;;;;;6.10;2.13;;;;;;;3.82;65.20;97438.06;5005023;28;20465;-76
2021/03/28 03:37:05;;;;;;;8.50;2.30;;;;;;;3.90;64.38;97438.47;4985005;28;20472;-76
2021/03/28 03:39:50;;;;;;;13.47;4.00;;;;;;;3.90;63.85;97442.84;4991125;28;20436;-75
2021/03/28 03:42:39;;;;;;;6.80;2.27;;;;;;;3.94;64.20;97439.13;4994828;28;20449;-76
2021/03/28 03:45:20;;;;;;;6.80;2.13;;;;;;;3.95;63.82;97448.59;4973143;28;20489;-76
2021/03/28 03:47:54;;;;;;;9.07;2.17;;;;;;;3.92;64.74;97447.03;5005648;28;20525;-77
2021/03/28 03:50:26;;;;;;;12.20;2.87;;;;;;;3.98;64.59;97446.66;4983887;28;21531;-78
2021/03/28 03:53:22;;;;;;;7.80;2.40;;;;;;;4.00;64.22;97446.59;4994114;28;20580;-76
2021/03/28 03:56:17;;;;;;;7.57;1.90;;;;;;;4.06;64.00;97454.06;4984425;28;20480;-77
2021/03/28 03:58:52;;;;;;;9.17;2.00;;;;;;;4.04;63.77;97449.84;5000514;28;20468;-76
2021/03/28 04:01:25;;;;;;;8.43;1.77;;;;;;;4.15;63.60;97450.06;4984687;28;20519;-75
2021/03/28 04:04:05;;;;;;;8.30;2.53;;;;;;;4.14;63.72;97457.03;4984242;28;20445;-75
2021/03/28 04:07:02;;;;;;;6.90;2.20;;;;;;;4.13;63.70;97457.13;4991157;28;20075;-76
2021/03/28 04:09:56;;;;;;;5.73;1.93;;;;;;;4.16;63.41;97459.56;4989851;28;20938;-75
2021/03/28 04:12:39;;;;;;;;;;;;;;;4.11;64.30;97461.59;5025601;28;20475;-75
2021/03/28 04:15:45;;;;;;;10.63;2.43;;;;;;;4.08;64.46;97461.75;5008246;28;19917;-78
2021/03/28 04:18:23;;;;;;;8.67;2.27;;;;;;;4.08;64.64;97465.19;4949168;28;20526;-78
2021/03/28 04:21:15;;;;;;;5.90;1.90;;;;;;;4.10;65.02;97465.97;5001886;28;20464;-76
2021/03/28 04:23:59;;;;;;;7.17;2.00;;;;;;;4.10;64.37;97470.31;4992589;28;21064;-76
2021/03/28 04:26:41;;;;;;;7.65;3.33;;;;;;;4.09;64.57;97473.84;4981391;28;20515;-78
2021/03/28 04:29:12;;;;;;;9.23;1.97;;;;;;;4.07;64.57;97467.91;4990004;28;20030;-76
2021/03/28 04:32:00;;;;;;;9.57;2.23;;;;;;;4.08;63.94;97466.97;4994042;28;20533;-78
2021/03/28 04:34:44;;;;;;;7.17;1.67;;;;;;;4.12;64.39;97473.66;4996783;28;20449;-76
2021/03/28 04:37:27;;;;;;;10.47;2.90;;;;;;;4.10;63.78;97475.53;4986050;28;21013;-76
2021/03/28 04:40:21;;;;;;;6.90;2.40;;;;;;;4.09;64.44;97486.84;5009341;28;21289;-76
2021/03/28 04:43:08;;;;;;;5.75;1.92;;;;;;;4.07;63.52;97484.34;4977525;28;20487;-76
2021/03/28 04:45:45;;;;;;;13.10;2.60;;;;;;;4.09;63.95;97481.66;4980742;28;20038;-78
2021/03/28 04:48:37;;;;;;;5.93;2.03;;;;;;;4.12;63.40;97481.47;4971262;28;20484;-78
2021/03/28 04:51:05;;;;;;;9.50;2.63;;;;;;;4.12;64.16;97490.13;4991213;28;20469;-76
2021/03/28 04:53:47;;;;;;;7.17;2.47;;;;;;;4.11;63.21;97487.63;4987788;28;20556;-76
2021/03/28 04:56:28;;;;;;;8.87;2.20;;;;;;;4.09;63.46;97489.47;4989156;28;20453;-76
2021/03/28 04:59:18;;;;;;;7.30;2.50;;;;;;;4.14;63.36;97488.28;5000945;28;20472;-76
2021/03/28 05:02:16;;;;;;;7.47;2.00;;;;;;;4.13;63.73;97491.81;5061674;28;20489;-76
2021/03/28 05:05:07;;;;;;;7.50;2.37;;;;;;;4.08;63.88;97487.78;4983387;28;20548;-76
2021/03/28 05:08:10;;;;;;;6.73;2.23;;;;;;;4.12;63.96;97487.50;4988282;28;20436;-76
2021/03/28 05:10:57;;;;;;;7.53;2.13;;;;;;;4.22;63.31;97488.66;4997061;28;20815;-75
2021/03/28 05:13:57;;;;;;;4.30;1.90;;;;;;;4.12;63.98;97495.31;4985734;28;20474;-75
2021/03/28 05:16:25;;;;;;;6.93;1.90;;;;;;;4.15;64.06;97489.94;5013645;28;20556;-76
2021/03/28 05:19:34;;;;;;;8.77;2.03;;;;;;;4.19;63.71;97491.47;4990676;28;20456;-78
2021/03/28 05:22:30;;;;;;;9.33;2.00;;;;;;;4.29;63.74;97485.69;4990225;28;20449;-76
2021/03/28 05:25:13;;;;;;;6.27;1.93;;;;;;;4.34;63.72;97483.69;5003734;28;21057;-76
2021/03/28 05:27:57;;;;;;;7.60;1.70;;;;;;;4.29;63.70;97486.53;4992749;28;20462;-76
2021/03/28 05:31:00;;;;;;;5.75;1.63;;;;;;;4.32;63.07;97495.94;4988058;28;20121;-77
2021/03/28 05:33:29;;;;;;;9.73;2.27;;;;;;;4.23;63.84;97492.13;4994716;28;20038;-75
2021/03/28 05:36:13;;;;;;;10.00;2.00;;;;;;;4.26;64.10;97489.34;4967988;28;20479;-76
2021/03/28 05:38:49;;;;;;;;;;;;;;;4.26;63.99;97494.56;5001343;28;20536;-76
2021/03/28 05:41:56;;;;;;;7.90;2.97;;;;;;;4.24;64.22;97488.59;4999732;28;19939;-76
2021/03/28 05:44:37;;;;;;;7.10;2.20;;;;;;;4.16;64.57;97483.00;5015515;28;21073;-76
2021/03/28 05:47:35;;;;;;;7.10;2.23;;;;;;;4.21;64.58;97496.56;5000742;28;20458;-77
2021/03/28 05:50:10;;;;;;;8.10;1.77;;;;;;;4.22;64.64;97490.44;4989187;28;20544;-77
2021/03/28 05:53:09;;;;;;;6.77;1.80;;;;;;;4.23;64.10;97486.91;5004593;28;20564;-77
2021/03/28 05:56:04;;;;;;;9.43;2.40;;;;;;;4.28;64.51;97494.44;5007054;28;21027;-77
2021/03/28 05:58:51;;;;;;;7.53;2.60;;;;;;;4.33;64.65;97495.88;4985372;28;20466;-77
2021/03/28 06:01:19;;;;;;;8.70;2.50;;;;;;;4.55;63.61;97495.44;5076272;28;20473;-77
2021/03/28 06:04:04;;;;;;;9.97;2.27;;;;;;;4.82;62.95;97497.31;4991282;28;20433;-77
2021/03/28 06:06:52;;;;;;;12.00;3.10;;;;;;;5.20;62.39;97490.59;4992413;28;20949;-76
2021/03/28 06:09:59;;;;;;;10.30;3.40;;;;;;;5.22;62.13;97498.31;4984228;28;20470;-77
2021/03/28 06:12:24;;;;;;;5.77;2.27;;;;;;;5.43;61.76;97494.41;4978281;28;20436;-76
2021/03/28 06:15:20;;;;;;;10.67;2.80;;;;;;;5.44;62.29;97505.66;4988428;28;20453;-77
2021/03/28 06:18:23;;;;;;;9.70;2.17;;;;;;;5.15;62.90;97500.47;4971540;28;20100;-77
2021/03/28 06:21:04;;;;;;;7.37;2.27;;;;;;;5.07;63.66;97491.47;4984397;28;20476;-78
2021/03/28 06:23:46;;;;;;;8.37;2.53;;;;;;;5.08;64.01;97498.34;4979371;28;20469;-77
2021/03/28 06:26:51;;;;;;;10.07;2.10;;;;;;;4.97;64.06;97505.06;5059909;28;20465;-77
2021/03/28 06:29:38;;;;;;;9.57;2.40;;;;;;;5.13;63.04;97509.31;4986051;28;20471;-77
2021/03/28 06:32:30;;;;;;;8.37;2.53;;;;;;;5.57;61.98;97518.78;4975239;28;20561;-77
2021/03/28 06:35:18;;;;;;;12.17;2.80;;;;;;;6.05;60.36;97524.44;4974416;28;20480;-77
2021/03/28 06:38:06;;;;;;;6.63;2.67;;;;;;;7.19;57.45;97517.66;4962401;28;20484;-77
2021/03/28 06:40:51;;;;;;;7.33;2.03;;;;;;;6.79;57.35;97526.44;4958905;28;20042;-78
2021/03/28 06:43:49;;;;;;;10.57;2.67;;;;;;;7.45;56.32;97518.44;4966931;28;20027;-77
2021/03/28 06:46:30;;;;;;;11.37;3.23;;;;;;;7.74;55.36;97513.75;4986607;28;20037;-77
2021/03/28 06:49:26;;;;;;;7.47;2.57;;;;;;;7.79;54.84;97516.88;4982668;28;20038;-77
2021/03/28 06:52:14;;;;;;;9.03;2.60;;;;;;;8.25;54.08;97514.38;4986549;28;20034;-77
2021/03/28 06:55:11;;;;;;;11.13;2.17;;;;;;;8.71;54.13;97505.69;4966718;28;20435;-77
2021/03/28 06:58:14;;;;;;;10.27;2.53;;;;;;;8.97;52.83;97508.94;5060052;28;20613;-76
2021/03/28 07:01:10;;;;;;;8.80;2.10;;;;;;;9.63;51.37;97522.19;4988171;28;20029;-78
2021/03/28 07:03:57;;;;;;;9.80;2.43;;;;;;;9.84;51.36;97524.88;4987313;28;20025;-77
2021/03/28 07:06:34;;;;;;;8.13;2.13;;;;;;;10.26;48.71;97518.94;4994828;28;20038;-78
2021/03/28 07:09:27;;;;;;;7.07;1.87;;;;;;;9.40;50.30;97520.53;4975645;28;20042;-77
2021/03/28 07:12:23;;;;;;;9.13;2.00;;;;;;;9.66;49.33;97513.25;4975480;28;20025;-77
2021/03/28 07:15:03;;;;;;;12.17;1.83;;;;;;;9.58;49.14;97524.34;4963135;28;20046;-77
2021/03/28 07:17:53;;;;;;;12.30;2.10;;;;;;;10.30;48.02;97518.56;4982099;28;20030;-78
2021/03/28 07:21:02;;;;;;;7.57;1.63;;;;;;;10.17;47.10;97517.03;4974684;28;20042;-77
2021/03/28 07:23:50;;;;;;;10.97;2.30;;;;;;;9.77;47.22;97513.22;5011526;28;20407;-77
2021/03/28 07:26:50;;;;;;;7.90;1.60;;;;;;;9.89;47.65;97512.22;4990964;28;20038;-77
2021/03/28 07:29:43;;;;;;;6.20;1.70;;;;;;;10.25;47.82;97504.09;4986372;28;20034;-77
2021/03/28 07:32:09;;;;;;;6.22;1.50;;;;;;;9.91;47.47;97507.66;5013106;28;20034;-77
2021/03/28 07:34:52;;;;;;;6.27;1.37;;;;;;;10.05;47.22;97511.81;5001742;28;20022;-78
2021/03/28 07:37:18;;;;;;;6.80;1.67;;;;;;;9.83;47.61;97509.25;5012540;28;20041;-78
2021/03/28 07:40:21;;;;;;;7.33;1.40;;;;;;;9.54;48.19;97511.56;5009695;28;20030;-77
2021/03/28 07:43:44;;;;;;;8.50;1.60;;;;;;;9.84;47.58;97521.44;5006914;28;20027;-77
2021/03/28 07:46:25;;;;;;;6.27;1.80;;;;;;;10.12;47.31;97525.28;5050573;28;20478;-77
2021/03/28 07:49:17;;;;;;;11.07;4.90;;;;;;;9.93;47.24;97536.47;5011916;28;20099;-78
2021/03/28 07:52:01;;;;;;;11.30;1.87;;;;;;;10.49;46.19;97538.06;5076688;28;20038;-77
2021/03/28 07:54:45;;;;;;;5.63;1.83;;;;;;;11.31;46.50;97543.44;5012677;28;20505;-78
2021/03/28 07:57:45;;;;;;;6.43;2.50;;;;;;;11.06;47.23;97542.88;5003204;28;20056;-78
2021/03/28 08:00:30;;;;;;;9.57;1.97;;;;;;;11.35;45.83;97552.75;5002096;28;20048;-77
2021/03/28 08:03:21;;;;;;;5.00;1.50;;;;;;;11.30;45.42;97545.25;5009053;28;20115;-76
2021/03/28 08:06:24;;;;;;;5.77;1.83;;;;;;;11.37;45.20;97545.56;5016360;28;20122;-78
2021/03/28 08:09:02;;;;;;;6.93;1.70;;;;;;;12.01;43.41;97533.88;4982428;28;20045;-76
2021/03/28 08:11:28;;;;;;;11.67;2.13;;;;;;;12.53;41.95;97536.25;4983455;28;20090;-78
2021/03/28 08:14:06;;;;;;;10.17;1.83;;;;;;;12.88;41.52;97538.31;5088142;27;20026;-76
2021/03/28 08:16:47;;;;;;;8.13;1.77;;;;;;;12.80;41.57;97541.63;4989471;28;20038;-77
2021/03/28 08:19:29;;;;;;;7.00;1.40;;;;;;;12.76;41.80;97540.25;4996444;28;20053;-77
2021/03/28 08:22:36;;;;;;;5.60;1.40;;;;;;;12.26;42.09;97543.03;4978018;28;20042;-77
2021/03/28 08:25:35;;;;;;;6.90;1.70;;;;;;;12.24;42.63;97547.63;4995767;28;20034;-77
2021/03/28 08:28:16;;;;;;;5.67;2.00;;;;;;;11.91;42.68;97560.19;5005064;28;20120;-76
2021/03/28 08:31:05;;;;;;;7.67;1.63;;;;;;;12.12;42.33;97568.00;5001122;28;20083;-77
2021/03/28 08:34:00;;;;;;;8.50;1.87;;;;;;;12.07;42.74;97585.19;4999749;28;20049;-76
2021/03/28 08:36:53;;;;;;;7.57;1.73;;;;;;;11.76;42.63;97567.59;4982298;28;20031;-76
2021/03/28 08:39:28;;;;;;;6.90;1.88;;;;;;;12.72;42.44;97570.56;5009388;28;20034;-77
2021/03/28 08:42:31;;;;;;;6.47;1.80;;;;;;;12.49;42.36;97565.53;4986832;28;20038;-76
2021/03/28 08:45:26;;;;;;;6.75;1.65;;;;;;;11.90;41.18;97584.03;4993480;28;20487;-77
2021/03/28 08:48:04;;;;;;;8.80;1.70;;;;;;;11.47;42.18;97585.13;4989711;28;20499;-78
2021/03/28 08:51:00;;;;;;;8.13;1.90;;;;;;;11.97;42.02;97578.13;4993483;28;20038;-76
2021/03/28 08:53:50;;;;;;;7.27;2.00;;;;;;;12.28;40.29;97583.31;4997199;28;20050;-76
2021/03/28 08:56:24;;;;;;;6.97;1.57;;;;;;;13.22;38.06;97583.53;5081381;28;20060;-77
2021/03/28 08:59:08;;;;;;;5.87;1.40;;;;;;;13.88;37.62;97582.63;4992444;28;20038;-77
2021/03/28 09:02:05;;;;;;;9.10;1.77;;;;;;;13.75;37.66;97580.34;4994557;28;20121;-77
2021/03/28 09:04:58;;;;;;;4.77;1.60;;;;;;;15.09;37.10;97571.59;4992213;28;20053;-77
2021/03/28 09:07:40;;;;;;;8.27;2.17;;;;;;;15.19;35.58;97579.47;5019264;28;20034;-77
2021/03/28 09:10:43;;;;;;;5.63;1.50;;;;;;;15.83;34.71;97576.50;4997936;28;20042;-77
2021/03/28 09:13:24;;;;;;;8.13;2.00;;;;;;;15.38;34.69;97580.22;4995737;28;20087;-77
2021/03/28 09:16:17;;;;;;;6.63;2.27;;;;;;;16.01;33.26;97585.22;5084402;27;20465;-77
2021/03/28 09:18:47;;;;;;;7.05;1.60;;;;;;;16.21;32.83;97573.34;4992858;28;20444;-77
2021/03/28 09:21:30;;;;;;;5.87;1.60;;;;;;;16.37;32.44;97571.72;4977680;28;20030;-77
2021/03/28 09:24:21;;;;;;;5.83;1.67;;;;;;;16.23;33.83;97576.69;5106598;27;20403;-78
2021/03/28 09:27:15;;;;;;;7.07;1.77;;;;;;;16.26;30.56;97572.84;5088053;27;20090;-77
2021/03/28 09:30:15;;;;;;;8.63;2.47;;;;;;;16.23;31.63;97576.69;5078106;28;20120;-77
2021/03/28 09:33:09;;;;;;;4.80;2.27;;;;;;;16.48;31.73;97569.59;4987436;28;20063;-77
2021/03/28 09:36:11;;;;;;;6.00;1.23;;;;;;;15.63;30.15;97566.13;4986560;28;20069;-79
2021/03/28 09:38:49;;;;;;;3.53;1.30;;;;;;;15.47;30.19;97568.69;4997510;28;20114;-76
2021/03/28 09:41:20;;;;;;;4.17;1.60;;;;;;;15.45;32.19;97565.34;5003848;28;20037;-77
2021/03/28 09:43:57;;;;;;;6.43;1.60;;;;;;;15.97;30.82;97560.00;5010086;28;20086;-78
2021/03/28 09:46:45;;;;;;;5.33;1.50;;;;;;;16.38;29.57;97547.66;5105340;27;20030;-79
2021/03/28 09:49:52;;;;;;;6.27;1.67;;;;;;;15.79;31.25;97552.13;4999699;28;20110;-78
2021/03/28 09:52:49;;;;;;;4.87;1.63;;;;;;;15.79;29.71;97552.13;5091284;27;20065;-78
2021/03/28 09:55:50;;;;;;;5.93;1.50;;;;;;;14.84;30.60;97554.69;5004770;28;20039;-79
2021/03/28 09:58:47;;;;;;;5.37;1.77;;;;;;;15.04;30.36;97543.91;5065284;27;20488;-77
2021/03/28 10:01:36;;;;;;;7.40;1.70;;;;;;;15.54;30.16;97543.22;5093985;27;20908;-77
2021/03/28 10:04:02;;;;;;;3.97;1.40;;;;;;;15.89;30.01;97542.22;4992765;28;20036;-80
2021/03/28 10:06:29;;;;;;;4.97;1.73;;;;;;;16.19;30.06;97532.84;4996201;28;20034;-78
2021/03/28 10:09:15;;;;;;;4.47;1.63;;;;;;;17.05;28.92;97536.09;5006309;28;20444;-78
2021/03/28 10:11:57;;;;;;;7.70;2.00;;;;;;;17.71;28.27;97536.78;5098640;27;20493;-78
2021/03/28 10:14:45;;;;;;;7.40;1.70;;;;;;;17.06;28.69;97537.75;4999436;28;20046;-78
2021/03/28 10:17:44;;;;;;;5.43;1.60;;;;;;;15.42;30.04;97540.00;4993013;28;20044;-78
2021/03/28 10:20:38;;;;;;;3.63;1.30;;;;;;;16.02;30.34;97539.13;5085104;28;20039;-78
2021/03/28 10:23:22;;;;;;;4.03;1.20;;;;;;;16.12;28.34;97536.31;5087461;28;20038;-77
2021/03/28 10:26:11;;;;;;;5.17;1.30;;;;;;;16.85;27.32;97532.94;4995408;28;20041;-77
2021/03/28 10:28:46;;;;;;;7.50;1.60;;;;;;;16.84;28.42;97526.81;5017798;28;20042;-78
2021/03/28 10:31:52;;;;;;;4.13;1.50;;;;;;;17.01;26.93;97532.94;4996658;28;20125;-77
2021/03/28 10:34:43;;;;;;;5.10;1.40;;;;;;;17.22;27.29;97528.91;5022795;28;20128;-78
2021/03/28 10:37:31;;;;;;;4.77;1.47;;;;;;;16.94;27.32;97526.66;5001315;28;20087;-78
2021/03/28 10:40:14;;;;;;;6.82;1.65;;;;;;;17.18;28.51;97515.97;4996386;28;20045;-78
2021/03/28 10:42:55;;;;;;;7.95;1.85;;;;;;;16.20;28.77;97513.28;4993463;28;20034;-78
2021/03/28 10:45:32;;;;;;;5.60;1.70;;;;;;;16.63;29.42;97508.69;4976659;28;20041;-78
2021/03/28 10:48:29;;;;;;;5.50;1.60;;;;;;;18.01;27.39;97508.56;4977605;28;20423;-78
2021/03/28 10:51:13;;;;;;;5.07;1.30;;;;;;;16.84;28.79;97510.88;4981913;28;20030;-78
2021/03/28 10:54:01;;;;;;;5.90;1.30;;;;;;;17.38;27.11;97515.59;4999172;28;20045;-78
2021/03/28 10:56:27;;;;;;;4.60;1.88;;;;;;;16.86;28.04;97500.06;4993414;28;20037;-78
2021/03/28 10:59:26;;;;;;;5.67;1.47;;;;;;;17.57;28.32;97507.22;4996768;28;20052;-78
2021/03/28 11:01:55;;;;;;;5.78;1.45;;;;;;;16.88;26.61;97506.06;4997797;28;20498;-78
2021/03/28 11:04:39;;;;;;;8.10;1.93;;;;;;;17.12;26.90;97508.66;4993102;28;20090;-78
2021/03/28 11:07:25;;;;;;;6.05;1.45;;;;;;;16.66;27.24;97505.69;5105191;27;20041;-78
2021/03/28 11:09:53;;;;;;;4.35;1.58;;;;;;;16.45;27.70;97494.72;4989260;28;20136;-77
2021/03/28 11:12:25;;;;;;;5.97;1.70;;;;;;;16.89;27.86;97497.91;5010446;28;20034;-78
2021/03/28 11:15:12;;;;;;;5.80;1.40;;;;;;;17.35;27.42;97497.31;4993769;28;20045;-78
2021/03/28 11:17:37;;;;;;;4.20;1.67;;;;;;;17.33;26.58;97480.69;5012204;28;20494;-78
2021/03/28 11:20:32;;;;;;;6.45;1.45;;;;;;;16.80;27.32;97483.00;4988436;28;20069;-78
2021/03/28 11:23:32;;;;;;;6.43;1.90;;;;;;;18.20;26.58;97475.31;5047784;28;20145;-78
2021/03/28 11:25:58;;;;;;;4.45;1.45;;;;;;;18.79;25.52;97462.22;5098551;27;20663;-78
2021/03/28 11:28:36;;;;;;;4.60;1.63;;;;;;;18.39;26.35;97466.84;4989474;28;20033;-77
2021/03/28 11:31:39;;;;;;;4.05;1.67;;;;;;;18.10;27.07;97464.88;4991709;28;20065;-78
2021/03/28 11:34:24;;;;;;;4.03;1.38;;;;;;;18.14;26.69;97466.19;5018447;28;20673;-78
2021/03/28 11:37:01;;;;;;;5.35;1.50;;;;;;;17.54;26.15;97465.00;4978355;28;20068;-79
2021/03/28 11:39:35;;;;;;;5.53;1.77;;;;;;;17.93;25.49;97458.00;4983448;28;20030;-79
2021/03/28 11:42:22;;;;;;;7.38;2.42;;;;;;;18.05;25.43;97446.78;4994637;28;20178;-79
2021/03/28 11:45:36;;;;;;;3.58;1.13;;;;;;;17.01;26.81;97447.91;5007076;28;20033;-78
2021/03/28 11:48:07;;;;;;;5.60;1.42;;;;;;;18.13;25.82;97444.06;5004412;28;20050;-80
2021/03/28 11:50:38;;;;;;;4.35;1.60;;;;;;;17.90;26.31;97444.03;5009857;28;20045;-79
2021/03/28 11:53:07;;;;;;;6.60;2.05;;;;;;;17.66;26.56;97439.66;4991205;28;20513;-79
2021/03/28 11:55:51;;;;;;;3.95;1.60;;;;;;;18.19;26.80;97444.38;5004752;28;20054;-79
2021/03/28 11:58:17;;;;;;;5.75;2.25;;;;;;;18.14;27.41;97440.41;5003564;28;20491;-79
2021/03/28 12:00:54;;;;;;;5.55;1.85;;;;;;;18.60;26.44;97434.22;5005401;28;20053;-79
2021/03/28 12:03:20;;;;;;;6.20;2.28;;;;;;;17.93;27.26;97437.56;4988906;28;20038;-79
2021/03/28 12:05:54;;;;;;;5.45;2.20;;;;;;;18.91;26.89;97420.78;5087477;27;20045;-79
2021/03/28 12:08:24;;;;;;;6.35;2.03;;;;;;;18.78;26.81;97433.94;4998906;28;20063;-78
2021/03/28 12:10:51;;;;;;;5.15;1.92;;;;;;;19.36;25.85;97434.94;5002524;28;20042;-79
2021/03/28 12:13:35;;;;;;;5.30;1.70;;;;;;;18.65;27.98;97431.84;4998562;28;20032;-78
2021/03/28 12:16:04;;;;;;;4.72;1.75;;;;;;;18.84;27.16;97427.84;4990236;28;20072;-78
2021/03/28 12:18:31;;;;;;;7.18;1.95;;;;;;;18.11;27.17;97430.13;4980052;28;20034;-77
2021/03/28 12:21:06;;;;;;;5.93;2.08;;;;;;;18.29;26.90;97415.69;5005313;28;20026;-77
2021/03/28 12:23:59;;;;;;;6.85;1.85;;;;;;;18.11;26.46;97419.47;4988196;28;20854;-77
2021/03/28 12:26:31;;;;;;;5.00;1.95;;;;;;;17.87;27.96;97416.97;4982123;28;20470;-77
2021/03/28 12:29:02;;;;;;;7.30;1.95;;;;;;;17.53;27.78;97412.78;4983772;28;20450;-77
2021/03/28 12:31:33;;;;;;;4.32;1.65;;;;;;;16.77;28.70;97408.94;5085372;28;20037;-77
2021/03/28 12:34:07;;;;;;;5.93;1.65;;;;;;;17.50;28.83;97410.47;4987236;28;20034;-79
2021/03/28 12:36:54;;;;;;;7.53;2.10;;;;;;;19.03;26.52;97398.00;5009275;28;20082;-78
2021/03/28 12:39:33;;;;;;;4.65;1.52;;;;;;;18.05;27.33;97403.38;5075168;28;20074;-79
2021/03/28 12:42:01;;;;;;;7.45;1.98;;;;;;;17.85;27.65;97403.03;4965580;28;20042;-78
2021/03/28 12:44:34;;;;;;;6.80;2.28;;;;;;;17.40;27.44;97400.09;4966163;28;20026;-77
2021/03/28 12:47:01;;;;;;;5.35;1.73;;;;;;;18.04;26.94;97388.41;4969793;28;20029;-78
2021/03/28 12:49:41;;;;;;;6.78;2.00;;;;;;;17.67;26.49;97392.59;4992325;28;20388;-78
2021/03/28 12:52:12;;;;;;;7.45;2.10;;;;;;;17.89;26.62;97383.84;4994408;28;20062;-78
2021/03/28 12:55:06;;;;;;;8.77;2.20;;;;;;;18.36;26.93;97376.66;4981463;28;20036;-77
2021/03/28 12:57:49;;;;;;;6.25;2.15;;;;;;;18.49;26.55;97387.53;5002358;28;20092;-80
2021/03/28 13:00:39;;;;;;;4.05;1.83;;;;;;;18.11;26.69;97381.38;5008161;28;20800;-77
2021/03/28 13:03:24;;;;;;;5.85;1.92;;;;;;;18.40;26.39;97377.94;5005382;28;20101;-78
2021/03/28 13:06:02;;;;;;;4.35;1.38;;;;;;;17.94;26.91;97370.03;5031466;28;20027;-78